• Join FlightAware (Why Join?)
  • Login
  • US Flag 
10:50AM EDT


 

Airport Tracker/Info


-or-


 

Live Flight TrackerFlight Track Log ✈ SKW6235 ✈ 26-Jul-2013 ✈ KPDX - KLAX

Flight Track Log - Related Links

Times and Time Zones

All times are in EDT time to prevent confusion due to time zone crossing. See the SKW6235 flight status page for this flight to view local times or setup timezone preferences in your user account.

Time Position Orientation Groundspeed Altitude Reporting Facility
EDT Latitude Longitude Course Direction KTS MPH feet Rate Location/Type
07:03PM 45.6183 -122.6867 290° West 204 235 3,100  Level Seattle Center
07:04PM 45.4061 -122.3479 252° West  Level FlightAware Approximate
07:04PM 45.6597 -122.7842 301° West 270 311 5,700  Level Seattle Center
07:05PM 45.3672 -122.5027 246° West  Level FlightAware Approximate
07:05PM 45.6367 -122.8861 252° West 284 327 8,800  Level Seattle Center
07:06PM 45.3207 -122.6535 246° West  Level FlightAware Approximate
07:06PM 45.5558 -122.9156 194° South 307 353 11,000  Level Seattle Center
07:07PM 45.2715 -122.8023 245° Southwest  Level FlightAware Approximate
07:07PM 45.4708 -122.9303 187° South 327 376 13,000  Level Seattle Center
07:08PM 45.3814 -122.9444 186° South 325 374 15,900 2,340 Climbing Seattle Center
07:09PM 45.2925 -122.9572 186° South 322 371 17,800 1,860 Climbing Seattle Center
07:11PM 45.2000 -122.9739 187° South 332 382 19,800 1,860 Climbing Seattle Center
07:12PM 45.1061 -122.9950 189° South 340 391 21,600 1,740 Climbing Seattle Center
07:13PM 45.0075 -123.0189 190° South 354 407 23,400 1,620 Climbing Seattle Center
07:14PM 44.9075 -123.0417 189° South 361 415 25,000 1,260 Climbing Seattle Center
07:15PM 44.8044 -123.0656 189° South 370 426 26,100 1,200 Climbing Seattle Center
07:16PM 44.6950 -123.0900 189° South 392 451 27,500 1,320 Climbing Seattle Center
07:17PM 44.5844 -123.1147 189° South 400 460 28,800 1,140 Climbing Seattle Center
07:18PM 44.4725 -123.1406 189° South 407 468 29,900 1,200 Climbing Seattle Center
07:19PM 44.3328 -123.1328 178° South 427 491 31,300 1,260 Climbing Seattle Center
07:20PM 44.2150 -123.1161 174° South 427 491 32,500 1,020 Climbing Seattle Center
07:21PM 44.0975 -123.1033 176° South 425 489 33,500 840 Climbing Seattle Center
07:22PM 43.9897 -123.0908 175° South 422 486 34,300 720 Climbing Seattle Center
07:23PM 43.8714 -123.0767 175° South 424 488 35,000 300 Climbing Seattle Center
07:24PM 43.7500 -123.0622 175° South 433 498 35,000  Level Seattle Center
07:25PM 43.6008 -123.0450 175° South 445 512 35,000  Level Seattle Center
07:26PM 43.4772 -123.0294 175° South 446 513 35,000  Level Seattle Center
07:27PM 43.3547 -123.0147 175° South 444 511 35,000  Level Seattle Center
07:28PM 43.2350 -123.0161 180° South 433 498 35,000  Level Seattle Center
07:29PM 43.1156 -123.0358 187° South 430 495 35,000  Level Seattle Center
07:30PM 42.9992 -123.0542 187° South 423 487 35,000  Level Seattle Center
07:31PM 42.8831 -123.0719 186° South 421 484 35,000  Level Seattle Center
07:32PM 42.7678 -123.0875 186° South 418 481 35,000  Level Seattle Center
07:33PM 42.6467 -123.1053 186° South 416 479 35,000  Level Seattle Center
07:34PM 42.5328 -123.1169 184° South 412 474 35,000  Level Seattle Center
07:35PM 42.4019 -123.1236 182° South 411 473 35,000  Level Seattle Center
07:36PM 42.2886 -123.1269 181° South 408 470 35,000  Level Seattle Center
07:37PM 42.1739 -123.1294 181° South 411 473 35,000  Level Seattle Center
07:38PM 42.0753 -123.1303 180° South 414 476 35,000  Level Seattle Center
07:39PM 41.9375 -123.1300 180° South 413 475 35,000  Level Seattle Center
07:40PM 41.8228 -123.1383 183° South 412 474 35,000  Level Seattle Center
07:41PM 41.7075 -123.1400 181° South 414 476 35,000  Level Seattle Center
07:42PM 41.5908 -123.1411 180° South 416 479 35,000  Level Seattle Center
07:43PM 41.4733 -123.1422 180° South 420 483 35,000  Level Seattle Center
07:44PM 41.3578 -123.1458 181° South 417 480 35,000  Level Seattle Center
07:45PM 41.2400 -123.1472 181° South 420 483 35,000  Level Seattle Center
07:46PM 41.1228 -123.1444 179° South 421 484 35,000  Level Seattle Center
07:47PM 41.0047 -123.1394 178° South 422 486 35,000  Level Seattle Center
07:48PM 40.8628 -123.1350 179° South 424 488 35,000  Level Seattle Center
07:49PM 40.7442 -123.1111 171° South 426 490 35,000  Level Seattle Center
07:50PM 40.6292 -123.0736 166° South 428 493 35,000  Level Seattle Center
07:51PM 40.5183 -123.0064 155° Southeast 437 503 35,000  Level Seattle Center
07:52PM 40.4103 -122.9364 154° Southeast 436 502 35,000  Level Seattle Center
07:53PM 40.3019 -122.8628 153° Southeast 437 503 35,000  Level Seattle Center
07:54PM 40.1964 -122.7925 153° Southeast 435 501 35,000  Level Seattle Center
07:55PM 40.0900 -122.7231 153° Southeast 433 498 35,000  Level Seattle Center
07:56PM 39.9639 -122.6400 153° Southeast 429 494 35,000  Level Seattle Center
07:57PM 39.8603 -122.5719 153° Southeast 425 489 35,000  Level Seattle Center
07:58PM 39.7578 -122.5044 153° Southeast 420 483 35,000  Level Seattle Center
08:00PM 39.6367 -122.4225 152° Southeast 416 479 35,000  Level Oakland Center
08:01PM 39.5350 -122.3561 153° Southeast 413 475 35,000  Level Oakland Center
08:02PM 39.4361 -122.2883 152° Southeast 404 465 35,000  Level Oakland Center
08:03PM 39.3103 -122.2128 155° Southeast 415 478 35,000  Level Oakland Center
08:04PM 39.2097 -122.1461 153° Southeast 415 478 35,000  Level Oakland Center
08:05PM 39.1081 -122.0831 154° Southeast 417 480 35,000  Level Oakland Center
08:06PM 39.0069 -122.0153 152° Southeast 415 478 35,000  Level Oakland Center
08:07PM 38.9042 -121.9508 154° Southeast 416 479 35,000  Level Oakland Center
08:08PM 38.8017 -121.8861 154° Southeast 415 478 35,000  Level Oakland Center
08:09PM 38.7008 -121.8219 154° Southeast 412 474 35,000  Level Oakland Center
08:10PM 38.5783 -121.7453 154° Southeast 412 474 35,000  Level Oakland Center
08:11PM 38.4756 -121.6817 154° Southeast 413 475 35,000  Level Oakland Center
08:12PM 38.3633 -121.6081 153° Southeast 421 484 35,000  Level Oakland Center
08:13PM 38.2583 -121.5425 154° Southeast 420 483 35,000  Level Oakland Center
08:14PM 38.1553 -121.4781 154° Southeast 414 476 35,000  Level Oakland Center
08:15PM 38.0625 -121.4214 154° Southeast 416 479 35,000  Level Oakland Center
08:16PM 37.9383 -121.3447 154° Southeast 415 478 35,000  Level Oakland Center
08:17PM 37.8356 -121.2811 154° Southeast 413 475 35,000  Level Oakland Center
08:18PM 37.7311 -121.2175 154° Southeast 417 480 35,000  Level Oakland Center
08:19PM 37.6275 -121.1533 154° Southeast 415 478 35,000  Level Oakland Center
08:20PM 37.5236 -121.0908 154° Southeast 416 479 35,000  Level Oakland Center
08:21PM 37.4200 -121.0269 154° Southeast 415 478 35,000  Level Oakland Center
08:22PM 37.3156 -120.9647 155° Southeast 416 479 35,000  Level Oakland Center
08:23PM 37.1928 -120.8850 153° Southeast 415 478 35,000  Level Oakland Center
08:24PM 37.0908 -120.8172 152° Southeast 415 478 35,000  Level Oakland Center
08:25PM 36.9889 -120.7514 153° Southeast 415 478 35,000  Level Oakland Center
08:26PM 36.8861 -120.6836 152° Southeast 416 479 35,000  Level Oakland Center
08:27PM 36.7811 -120.6181 153° Southeast 414 476 35,000  Level Oakland Center
08:29PM 36.6792 -120.5544 153° Southeast 409 471 35,000  Level Oakland Center
08:30PM 36.5778 -120.4867 152° Southeast 412 474 35,000  Level Oakland Center
08:31PM 36.4744 -120.4194 152° Southeast 417 480 35,000  Level Oakland Center
08:32PM 36.3725 -120.3536 153° Southeast 413 475 35,000  Level Oakland Center
08:33PM 36.2489 -120.2703 151° Southeast 421 484 35,000  Level Oakland Center
08:34PM 36.1475 -120.2042 152° Southeast 414 476 35,000  Level Oakland Center
08:35PM 36.0447 -120.1403 153° Southeast 410 472 35,000  Level Oakland Center
08:36PM 35.9414 -120.0725 152° Southeast 418 481 35,000  Level Oakland Center
08:37PM 35.8369 -120.0058 153° Southeast 418 481 35,000  Level Oakland Center
08:38PM 35.7333 -119.9403 153° Southeast 416 479 35,000  Level Oakland Center
08:39PM 35.6283 -119.8750 153° Southeast 417 480 35,000 -480 Level Oakland Center
08:40PM 35.5267 -119.7950 147° Southeast 426 490 34,100 -960 Descending Oakland Center
08:41PM 35.4200 -119.7111 147° Southeast 445 512 33,100 -1,020 Descending Oakland Center
08:42PM 35.2953 -119.6108 147° Southeast 448 516 31,900 -1,080 Descending Los Angeles Center
08:43PM 35.1744 -119.5164 147° Southeast 435 501 30,700 -1,080 Descending Los Angeles Center
08:44PM 35.0725 -119.4361 147° Southeast 434 499 29,700 -1,020 Descending Los Angeles Center
08:45PM 34.9650 -119.3536 148° Southeast 447 514 28,600 -1,020 Descending Los Angeles Center
08:46PM 34.8567 -119.2681 147° Southeast 458 527 27,600 -1,020 Descending Los Angeles Center
08:47PM 34.7519 -119.1861 147° Southeast 453 521 26,600 -1,740 Descending Los Angeles Center
08:48PM 34.6672 -119.1203 147° Southeast 448 516 24,100 -3,180 Descending Los Angeles Center
08:49PM 34.5175 -119.0022 147° Southeast 454 522 20,000 -3,240 Descending Los Angeles Center
08:50PM 34.4131 -118.9242 148° Southeast 443 510 17,400 -2,520 Descending Los Angeles Center
08:51PM 34.3086 -118.8617 154° Southeast 415 478 14,900 -2,280 Descending Los Angeles Center
08:52PM 34.2058 -118.8256 164° South 388 447 12,700 -1,920 Descending Los Angeles Center
08:53PM 34.1144 -118.7922 163° South 347 399 11,000 -1,320 Descending Los Angeles Center
08:54PM 34.0339 -118.7264 146° Southeast 308 354 10,000 -660 Descending Los Angeles Center
08:55PM 34.0258 -118.6283 96° East 294 338 9,700 -720 Descending Los Angeles Center
08:57PM 34.0172 -118.5319 96° East 289 333 8,600 -1,380 Descending Los Angeles Center
08:58PM 34.0164 -118.4364 91° East 277 319 6,900 -1,740 Descending Los Angeles Center
08:59PM 34.0294 -118.3453 80° East 273 314 5,100 -1,020 Descending Los Angeles Center
09:00PM 34.0406 -118.2636 81° East 250 288 4,800 -660 Descending Los Angeles Center
09:01PM 34.0200 -118.2153 117° Southeast 199 229 3,800 -1,140 Descending Los Angeles Center
09:02PM 33.9792 -118.2511 216° Southwest 196 226 2,500 -1,140 Descending Los Angeles Center
09:03PM 33.9608 -118.3197 252° West 187 215 1,500 -840 Descending Los Angeles Center
09:04PM 33.9561 -118.3647 263° West 158 182 800 -660 Descending Los Angeles Center
09:05PM 33.9525 -118.4044 264° West 135 155 200 -600 Descending Los Angeles Center